sensor_id;sensor_type;location;lat;lon;timestamp;pressure;altitude;pressure_sealevel;temperature;humidity
11395;BME280;5753;54.402;10.220;2023-06-24T00:00:01;102299.78;;;25.68;44.36
11395;BME280;5753;54.402;10.220;2023-06-24T00:02:29;102307.19;;;25.51;44.73
11395;BME280;5753;54.402;10.220;2023-06-24T00:04:55;102308.88;;;25.92;43.83
11395;BME280;5753;54.402;10.220;2023-06-24T00:07:26;102302.41;;;25.30;45.12
11395;BME280;5753;54.402;10.220;2023-06-24T00:09:52;102304.47;;;25.93;43.69
11395;BME280;5753;54.402;10.220;2023-06-24T00:12:18;102301.84;;;25.91;43.78
11395;BME280;5753;54.402;10.220;2023-06-24T00:14:46;102293.81;;;26.30;43.22
11395;BME280;5753;54.402;10.220;2023-06-24T00:17:12;102301.16;;;25.85;43.97
11395;BME280;5753;54.402;10.220;2023-06-24T00:19:38;102303.53;;;25.18;44.97
11395;BME280;5753;54.402;10.220;2023-06-24T00:22:04;102306.75;;;25.32;44.48
11395;BME280;5753;54.402;10.220;2023-06-24T00:24:32;102315.75;;;25.62;44.22
11395;BME280;5753;54.402;10.220;2023-06-24T00:26:58;102311.91;;;26.47;42.42
11395;BME280;5753;54.402;10.220;2023-06-24T00:29:24;102304.25;;;27.01;41.11
11395;BME280;5753;54.402;10.220;2023-06-24T00:31:50;102302.66;;;26.63;41.92
11395;BME280;5753;54.402;10.220;2023-06-24T00:34:16;102298.00;;;27.04;40.88
11395;BME280;5753;54.402;10.220;2023-06-24T00:36:46;102301.28;;;26.50;42.14
11395;BME280;5753;54.402;10.220;2023-06-24T00:39:12;102309.22;;;26.48;42.21
11395;BME280;5753;54.402;10.220;2023-06-24T00:41:39;102314.81;;;26.70;41.27
11395;BME280;5753;54.402;10.220;2023-06-24T00:44:05;102311.59;;;26.25;42.36
11395;BME280;5753;54.402;10.220;2023-06-24T00:46:31;102317.53;;;26.67;41.81
11395;BME280;5753;54.402;10.220;2023-06-24T00:48:59;102314.28;;;25.09;45.30
11395;BME280;5753;54.402;10.220;2023-06-24T00:51:29;102319.34;;;25.97;43.46
11395;BME280;5753;54.402;10.220;2023-06-24T00:54:00;102310.97;;;26.15;42.55
11395;BME280;5753;54.402;10.220;2023-06-24T00:56:30;102315.84;;;26.64;41.83
11395;BME280;5753;54.402;10.220;2023-06-24T00:59:02;102316.06;;;25.87;43.56
11395;BME280;5753;54.402;10.220;2023-06-24T01:01:34;102317.56;;;25.60;44.08
11395;BME280;5753;54.402;10.220;2023-06-24T01:04:02;102316.00;;;26.24;43.23
11395;BME280;5753;54.402;10.220;2023-06-24T01:06:29;102316.91;;;25.88;43.65
11395;BME280;5753;54.402;10.220;2023-06-24T01:08:59;102321.97;;;25.97;43.45
11395;BME280;5753;54.402;10.220;2023-06-24T01:11:27;102329.00;;;25.21;45.04
11395;BME280;5753;54.402;10.220;2023-06-24T01:13:53;102328.44;;;25.85;43.81
11395;BME280;5753;54.402;10.220;2023-06-24T01:19:53;102326.97;;;26.09;43.12
11395;BME280;5753;54.402;10.220;2023-06-24T01:25:02;102337.66;;;26.73;41.52
11395;BME280;5753;54.402;10.220;2023-06-24T01:36:55;102339.47;;;25.24;45.10
11395;BME280;5753;54.402;10.220;2023-06-24T01:39:24;102335.56;;;25.00;45.87
11395;BME280;5753;54.402;10.220;2023-06-24T01:41:58;102344.63;;;24.85;46.17
11395;BME280;5753;54.402;10.220;2023-06-24T01:44:28;102343.50;;;24.51;47.17
11395;BME280;5753;54.402;10.220;2023-06-24T01:46:57;102348.53;;;25.52;44.91
11395;BME280;5753;54.402;10.220;2023-06-24T01:49:24;102347.31;;;25.28;45.11
11395;BME280;5753;54.402;10.220;2023-06-24T01:51:55;102345.25;;;24.99;45.83
11395;BME280;5753;54.402;10.220;2023-06-24T01:54:23;102343.53;;;24.95;45.72
11395;BME280;5753;54.402;10.220;2023-06-24T01:56:52;102339.41;;;24.34;47.57
11395;BME280;5753;54.402;10.220;2023-06-24T01:59:21;102350.47;;;25.02;45.83
11395;BME280;5753;54.402;10.220;2023-06-24T02:01:48;102343.09;;;25.20;45.30
11395;BME280;5753;54.402;10.220;2023-06-24T02:04:18;102345.28;;;24.96;46.15
11395;BME280;5753;54.402;10.220;2023-06-24T02:06:45;102345.41;;;24.90;45.91
11395;BME280;5753;54.402;10.220;2023-06-24T02:09:13;102352.91;;;24.14;47.89
11395;BME280;5753;54.402;10.220;2023-06-24T02:11:42;102350.31;;;24.10;48.23
11395;BME280;5753;54.402;10.220;2023-06-24T02:14:10;102358.31;;;24.58;47.12
11395;BME280;5753;54.402;10.220;2023-06-24T02:16:37;102354.69;;;24.65;46.31
11395;BME280;5753;54.402;10.220;2023-06-24T02:19:07;102358.91;;;24.75;46.35
11395;BME280;5753;54.402;10.220;2023-06-24T02:21:35;102348.13;;;25.30;45.27
11395;BME280;5753;54.402;10.220;2023-06-24T02:24:02;102348.47;;;25.55;44.39
11395;BME280;5753;54.402;10.220;2023-06-24T02:26:28;102352.31;;;25.81;43.69
11395;BME280;5753;54.402;10.220;2023-06-24T02:28:55;102350.22;;;25.56;43.90
11395;BME280;5753;54.402;10.220;2023-06-24T02:31:21;102352.25;;;25.84;43.94
11395;BME280;5753;54.402;10.220;2023-06-24T02:33:47;102350.25;;;25.15;45.20
11395;BME280;5753;54.402;10.220;2023-06-24T02:36:14;102352.94;;;25.52;44.31
11395;BME280;5753;54.402;10.220;2023-06-24T02:38:40;102348.88;;;25.37;44.87
11395;BME280;5753;54.402;10.220;2023-06-24T02:41:06;102344.81;;;25.21;44.72
11395;BME280;5753;54.402;10.220;2023-06-24T02:43:33;102345.91;;;25.51;44.33
11395;BME280;5753;54.402;10.220;2023-06-24T02:46:02;102339.19;;;25.78;43.79
11395;BME280;5753;54.402;10.220;2023-06-24T02:48:30;102345.59;;;25.67;43.91
11395;BME280;5753;54.402;10.220;2023-06-24T02:50:59;102352.78;;;25.59;44.08
11395;BME280;5753;54.402;10.220;2023-06-24T02:53:25;102351.44;;;24.51;46.27
11395;BME280;5753;54.402;10.220;2023-06-24T02:55:54;102362.66;;;24.62;46.50
11395;BME280;5753;54.402;10.220;2023-06-24T02:58:20;102355.81;;;24.52;47.30
11395;BME280;5753;54.402;10.220;2023-06-24T03:00:47;102355.44;;;25.18;45.12
11395;BME280;5753;54.402;10.220;2023-06-24T03:03:15;102367.44;;;24.88;46.14
11395;BME280;5753;54.402;10.220;2023-06-24T03:05:43;102365.94;;;25.21;45.06
11395;BME280;5753;54.402;10.220;2023-06-24T03:08:10;102357.94;;;25.65;44.03
11395;BME280;5753;54.402;10.220;2023-06-24T03:10:37;102362.63;;;25.51;44.66
11395;BME280;5753;54.402;10.220;2023-06-24T03:13:03;102358.88;;;25.63;44.08
11395;BME280;5753;54.402;10.220;2023-06-24T03:15:29;102365.03;;;25.63;43.97
11395;BME280;5753;54.402;10.220;2023-06-24T03:17:56;102361.00;;;25.46;44.09
11395;BME280;5753;54.402;10.220;2023-06-24T03:20:22;102363.88;;;25.35;44.80
11395;BME280;5753;54.402;10.220;2023-06-24T03:22:49;102369.53;;;24.70;46.44
11395;BME280;5753;54.402;10.220;2023-06-24T03:25:15;102384.06;;;24.91;45.62
11395;BME280;5753;54.402;10.220;2023-06-24T03:27:41;102371.47;;;25.08;45.27
11395;BME280;5753;54.402;10.220;2023-06-24T03:30:08;102374.19;;;25.04;46.06
11395;BME280;5753;54.402;10.220;2023-06-24T03:32:34;102374.63;;;24.79;46.40
11395;BME280;5753;54.402;10.220;2023-06-24T03:35:01;102378.13;;;24.82;46.62
11395;BME280;5753;54.402;10.220;2023-06-24T03:37:27;102364.22;;;25.20;45.23
11395;BME280;5753;54.402;10.220;2023-06-24T03:39:53;102376.09;;;25.39;45.09
11395;BME280;5753;54.402;10.220;2023-06-24T03:42:19;102382.06;;;24.56;46.80
11395;BME280;5753;54.402;10.220;2023-06-24T03:44:45;102372.97;;;25.22;45.24
11395;BME280;5753;54.402;10.220;2023-06-24T03:47:11;102387.84;;;24.26;47.75
11395;BME280;5753;54.402;10.220;2023-06-24T03:49:37;102388.69;;;25.26;45.83
11395;BME280;5753;54.402;10.220;2023-06-24T03:52:03;102390.78;;;24.63;46.91
11395;BME280;5753;54.402;10.220;2023-06-24T03:54:31;102392.78;;;24.96;46.65
11395;BME280;5753;54.402;10.220;2023-06-24T03:56:57;102403.25;;;25.01;46.14
11395;BME280;5753;54.402;10.220;2023-06-24T03:59:23;102397.16;;;25.84;44.56
11395;BME280;5753;54.402;10.220;2023-06-24T04:01:49;102398.06;;;25.83;44.37
11395;BME280;5753;54.402;10.220;2023-06-24T04:04:17;102390.38;;;24.84;45.95
11395;BME280;5753;54.402;10.220;2023-06-24T04:06:43;102396.81;;;25.17;45.75
11395;BME280;5753;54.402;10.220;2023-06-24T04:09:09;102386.66;;;24.94;45.70
11395;BME280;5753;54.402;10.220;2023-06-24T04:11:36;102381.38;;;25.81;44.11
11395;BME280;5753;54.402;10.220;2023-06-24T04:14:02;102386.97;;;25.67;44.62
11395;BME280;5753;54.402;10.220;2023-06-24T04:16:28;102391.56;;;25.57;44.65
11395;BME280;5753;54.402;10.220;2023-06-24T04:18:54;102382.09;;;25.47;44.61
11395;BME280;5753;54.402;10.220;2023-06-24T04:21:20;102375.88;;;25.08;45.92
11395;BME280;5753;54.402;10.220;2023-06-24T04:23:46;102378.69;;;25.82;44.83
11395;BME280;5753;54.402;10.220;2023-06-24T04:26:12;102385.06;;;25.32;45.46
11395;BME280;5753;54.402;10.220;2023-06-24T04:28:38;102378.19;;;26.05;43.75
11395;BME280;5753;54.402;10.220;2023-06-24T04:31:05;102379.19;;;25.59;44.96
11395;BME280;5753;54.402;10.220;2023-06-24T04:33:32;102384.13;;;25.76;44.70
11395;BME280;5753;54.402;10.220;2023-06-24T04:35:58;102390.66;;;26.35;43.58
11395;BME280;5753;54.402;10.220;2023-06-24T04:38:25;102397.31;;;26.15;43.82
11395;BME280;5753;54.402;10.220;2023-06-24T04:40:51;102397.38;;;26.81;42.64
11395;BME280;5753;54.402;10.220;2023-06-24T04:43:17;102402.22;;;26.65;43.21
11395;BME280;5753;54.402;10.220;2023-06-24T04:45:43;102394.66;;;27.17;41.76
11395;BME280;5753;54.402;10.220;2023-06-24T04:48:09;102398.84;;;26.60;42.65
11395;BME280;5753;54.402;10.220;2023-06-24T04:50:35;102395.03;;;27.05;42.26
11395;BME280;5753;54.402;10.220;2023-06-24T04:53:01;102400.50;;;26.64;42.95
11395;BME280;5753;54.402;10.220;2023-06-24T04:55:27;102399.66;;;26.95;42.24
11395;BME280;5753;54.402;10.220;2023-06-24T04:57:56;102395.22;;;27.28;41.47
11395;BME280;5753;54.402;10.220;2023-06-24T05:00:22;102398.34;;;27.72;40.74
11395;BME280;5753;54.402;10.220;2023-06-24T05:02:51;102399.53;;;26.67;42.40
11395;BME280;5753;54.402;10.220;2023-06-24T05:05:17;102386.66;;;27.49;41.32
11395;BME280;5753;54.402;10.220;2023-06-24T05:07:43;102392.06;;;27.46;40.89
11395;BME280;5753;54.402;10.220;2023-06-24T05:10:09;102391.44;;;27.07;41.33
11395;BME280;5753;54.402;10.220;2023-06-24T05:12:36;102387.38;;;27.84;40.20
11395;BME280;5753;54.402;10.220;2023-06-24T05:15:02;102393.69;;;28.61;38.89
11395;BME280;5753;54.402;10.220;2023-06-24T05:17:28;102393.41;;;28.68;38.40
11395;BME280;5753;54.402;10.220;2023-06-24T05:19:54;102396.88;;;29.20;37.99
11395;BME280;5753;54.402;10.220;2023-06-24T05:22:20;102400.31;;;29.47;38.38
11395;BME280;5753;54.402;10.220;2023-06-24T05:24:46;102395.53;;;30.00;36.33
11395;BME280;5753;54.402;10.220;2023-06-24T05:27:13;102391.56;;;29.67;36.54
11395;BME280;5753;54.402;10.220;2023-06-24T05:29:39;102396.78;;;30.14;35.73
11395;BME280;5753;54.402;10.220;2023-06-24T05:32:05;102399.78;;;29.37;37.17
11395;BME280;5753;54.402;10.220;2023-06-24T05:34:32;102389.34;;;29.33;37.67
11395;BME280;5753;54.402;10.220;2023-06-24T05:36:58;102389.78;;;29.89;36.13
11395;BME280;5753;54.402;10.220;2023-06-24T05:39:24;102396.91;;;29.43;36.79
11395;BME280;5753;54.402;10.220;2023-06-24T05:41:51;102400.47;;;29.66;36.72
11395;BME280;5753;54.402;10.220;2023-06-24T05:44:17;102406.22;;;29.30;37.64
11395;BME280;5753;54.402;10.220;2023-06-24T05:46:46;102397.31;;;29.31;37.60
11395;BME280;5753;54.402;10.220;2023-06-24T05:49:12;102405.38;;;29.98;36.66
11395;BME280;5753;54.402;10.220;2023-06-24T05:51:38;102412.00;;;30.52;35.52
11395;BME280;5753;54.402;10.220;2023-06-24T05:54:04;102405.31;;;30.00;36.26
11395;BME280;5753;54.402;10.220;2023-06-24T05:56:32;102412.34;;;29.32;36.81
11395;BME280;5753;54.402;10.220;2023-06-24T05:58:58;102412.81;;;29.67;36.64
11395;BME280;5753;54.402;10.220;2023-06-24T06:01:24;102408.53;;;28.93;37.17
11395;BME280;5753;54.402;10.220;2023-06-24T06:03:51;102411.88;;;28.71;38.54
11395;BME280;5753;54.402;10.220;2023-06-24T06:06:17;102416.97;;;29.04;37.68
11395;BME280;5753;54.402;10.220;2023-06-24T06:08:43;102411.28;;;28.63;38.44
11395;BME280;5753;54.402;10.220;2023-06-24T06:11:09;102420.38;;;28.56;38.45
11395;BME280;5753;54.402;10.220;2023-06-24T06:13:35;102420.72;;;27.63;40.36
11395;BME280;5753;54.402;10.220;2023-06-24T06:16:01;102420.81;;;28.69;38.24
11395;BME280;5753;54.402;10.220;2023-06-24T06:18:27;102430.69;;;28.65;38.64
11395;BME280;5753;54.402;10.220;2023-06-24T06:20:53;102438.16;;;29.54;37.01
11395;BME280;5753;54.402;10.220;2023-06-24T06:23:19;102436.66;;;29.47;37.33
11395;BME280;5753;54.402;10.220;2023-06-24T06:25:46;102425.25;;;28.43;38.62
11395;BME280;5753;54.402;10.220;2023-06-24T06:28:12;102418.38;;;29.37;37.50
11395;BME280;5753;54.402;10.220;2023-06-24T06:30:38;102427.25;;;28.62;38.27
11395;BME280;5753;54.402;10.220;2023-06-24T06:33:04;102420.81;;;27.88;39.47
11395;BME280;5753;54.402;10.220;2023-06-24T06:35:31;102423.28;;;29.71;36.87
11395;BME280;5753;54.402;10.220;2023-06-24T06:37:58;102429.09;;;29.11;37.79
11395;BME280;5753;54.402;10.220;2023-06-24T06:40:24;102425.38;;;28.65;38.57
11395;BME280;5753;54.402;10.220;2023-06-24T06:42:50;102426.25;;;29.15;38.24
11395;BME280;5753;54.402;10.220;2023-06-24T06:45:16;102428.31;;;30.23;36.29
11395;BME280;5753;54.402;10.220;2023-06-24T06:47:42;102434.56;;;30.22;36.43
11395;BME280;5753;54.402;10.220;2023-06-24T06:50:09;102432.41;;;29.64;37.40
11395;BME280;5753;54.402;10.220;2023-06-24T06:52:35;102431.56;;;30.93;35.58
11395;BME280;5753;54.402;10.220;2023-06-24T06:55:01;102440.63;;;29.82;36.29
11395;BME280;5753;54.402;10.220;2023-06-24T06:57:27;102428.78;;;30.34;35.79
11395;BME280;5753;54.402;10.220;2023-06-24T06:59:53;102429.19;;;30.45;36.05
11395;BME280;5753;54.402;10.220;2023-06-24T07:02:20;102423.25;;;30.17;36.46
11395;BME280;5753;54.402;10.220;2023-06-24T07:04:46;102426.09;;;30.34;35.27
11395;BME280;5753;54.402;10.220;2023-06-24T07:07:13;102423.50;;;30.11;35.69
11395;BME280;5753;54.402;10.220;2023-06-24T07:09:40;102416.53;;;30.50;34.80
11395;BME280;5753;54.402;10.220;2023-06-24T07:12:07;102428.50;;;31.42;33.94
11395;BME280;5753;54.402;10.220;2023-06-24T07:14:33;102429.78;;;31.52;33.52
11395;BME280;5753;54.402;10.220;2023-06-24T07:16:59;102425.91;;;31.40;33.71
11395;BME280;5753;54.402;10.220;2023-06-24T07:19:25;102428.78;;;30.76;33.83
11395;BME280;5753;54.402;10.220;2023-06-24T07:21:52;102431.00;;;31.06;32.98
11395;BME280;5753;54.402;10.220;2023-06-24T07:24:18;102436.34;;;32.37;32.43
11395;BME280;5753;54.402;10.220;2023-06-24T07:26:44;102441.66;;;32.20;32.02
11395;BME280;5753;54.402;10.220;2023-06-24T07:29:10;102437.28;;;32.00;32.27
11395;BME280;5753;54.402;10.220;2023-06-24T07:31:37;102448.22;;;32.49;30.55
11395;BME280;5753;54.402;10.220;2023-06-24T07:34:03;102441.41;;;31.88;31.62
11395;BME280;5753;54.402;10.220;2023-06-24T07:36:30;102435.81;;;32.12;31.08
11395;BME280;5753;54.402;10.220;2023-06-24T07:38:56;102437.84;;;32.95;30.24
11395;BME280;5753;54.402;10.220;2023-06-24T07:41:22;102434.44;;;33.08;29.44
11395;BME280;5753;54.402;10.220;2023-06-24T07:43:48;102437.91;;;34.22;28.44
11395;BME280;5753;54.402;10.220;2023-06-24T07:46:14;102435.13;;;34.39;28.65
11395;BME280;5753;54.402;10.220;2023-06-24T07:48:40;102439.22;;;33.52;29.48
11395;BME280;5753;54.402;10.220;2023-06-24T07:51:06;102435.63;;;33.03;29.25
11395;BME280;5753;54.402;10.220;2023-06-24T07:53:32;102429.09;;;32.22;30.47
11395;BME280;5753;54.402;10.220;2023-06-24T07:55:59;102431.56;;;33.29;29.29
11395;BME280;5753;54.402;10.220;2023-06-24T07:58:25;102431.88;;;34.03;28.62
11395;BME280;5753;54.402;10.220;2023-06-24T08:00:51;102433.38;;;34.08;28.53
11395;BME280;5753;54.402;10.220;2023-06-24T08:03:17;102432.16;;;34.14;27.84
11395;BME280;5753;54.402;10.220;2023-06-24T08:05:44;102423.44;;;33.63;28.41
11395;BME280;5753;54.402;10.220;2023-06-24T08:08:10;102427.84;;;34.71;26.93
11395;BME280;5753;54.402;10.220;2023-06-24T08:10:36;102425.97;;;34.28;27.26
11395;BME280;5753;54.402;10.220;2023-06-24T08:13:02;102422.50;;;33.96;27.17
11395;BME280;5753;54.402;10.220;2023-06-24T08:15:28;102428.59;;;36.14;25.45
11395;BME280;5753;54.402;10.220;2023-06-24T08:17:55;102428.63;;;34.44;26.75
11395;BME280;5753;54.402;10.220;2023-06-24T08:20:22;102431.66;;;35.12;27.03
11395;BME280;5753;54.402;10.220;2023-06-24T08:22:48;102436.94;;;34.39;27.89
11395;BME280;5753;54.402;10.220;2023-06-24T08:25:15;102435.47;;;35.22;26.61
11395;BME280;5753;54.402;10.220;2023-06-24T08:27:41;102439.75;;;33.59;27.92
11395;BME280;5753;54.402;10.220;2023-06-24T08:30:09;102448.06;;;34.47;27.39
11395;BME280;5753;54.402;10.220;2023-06-24T08:32:36;102445.09;;;34.82;26.87
11395;BME280;5753;54.402;10.220;2023-06-24T08:35:02;102447.94;;;35.37;26.77
11395;BME280;5753;54.402;10.220;2023-06-24T08:37:28;102445.34;;;33.21;28.78
11395;BME280;5753;54.402;10.220;2023-06-24T08:39:54;102447.63;;;34.55;27.63
11395;BME280;5753;54.402;10.220;2023-06-24T08:42:20;102453.00;;;34.55;27.53
11395;BME280;5753;54.402;10.220;2023-06-24T08:44:46;102453.63;;;34.28;28.34
11395;BME280;5753;54.402;10.220;2023-06-24T08:47:12;102441.63;;;33.57;28.40
11395;BME280;5753;54.402;10.220;2023-06-24T08:49:48;102449.69;;;34.50;26.99
11395;BME280;5753;54.402;10.220;2023-06-24T08:52:16;102451.06;;;34.57;27.35
11395;BME280;5753;54.402;10.220;2023-06-24T08:54:47;102452.56;;;34.47;27.33
11395;BME280;5753;54.402;10.220;2023-06-24T08:57:14;102445.69;;;32.46;29.94
11395;BME280;5753;54.402;10.220;2023-06-24T08:59:41;102452.19;;;33.09;28.60
11395;BME280;5753;54.402;10.220;2023-06-24T09:02:08;102439.72;;;34.22;26.54
11395;BME280;5753;54.402;10.220;2023-06-24T09:04:34;102440.69;;;33.58;25.14
11395;BME280;5753;54.402;10.220;2023-06-24T09:07:00;102438.19;;;35.50;23.91
11395;BME280;5753;54.402;10.220;2023-06-24T09:09:26;102443.19;;;35.69;26.23
11395;BME280;5753;54.402;10.220;2023-06-24T09:11:58;102443.69;;;34.90;23.82
11395;BME280;5753;54.402;10.220;2023-06-24T09:14:26;102435.44;;;34.19;24.31
11395;BME280;5753;54.402;10.220;2023-06-24T09:17:00;102445.94;;;34.38;24.77
11395;BME280;5753;54.402;10.220;2023-06-24T09:19:30;102439.88;;;35.09;24.49
11395;BME280;5753;54.402;10.220;2023-06-24T09:22:01;102429.72;;;35.42;24.59
11395;BME280;5753;54.402;10.220;2023-06-24T09:24:34;102431.22;;;34.45;25.86
11395;BME280;5753;54.402;10.220;2023-06-24T09:27:01;102432.63;;;34.36;25.77
11395;BME280;5753;54.402;10.220;2023-06-24T09:29:32;102431.78;;;34.80;24.95
11395;BME280;5753;54.402;10.220;2023-06-24T09:31:58;102427.25;;;34.06;25.61
11395;BME280;5753;54.402;10.220;2023-06-24T09:34:27;102426.28;;;32.60;27.52
11395;BME280;5753;54.402;10.220;2023-06-24T09:36:58;102428.81;;;32.97;27.98
11395;BME280;5753;54.402;10.220;2023-06-24T09:39:25;102427.47;;;34.33;26.85
11395;BME280;5753;54.402;10.220;2023-06-24T09:42:00;102419.84;;;34.86;25.49
11395;BME280;5753;54.402;10.220;2023-06-24T09:44:27;102415.75;;;35.37;24.79
11395;BME280;5753;54.402;10.220;2023-06-24T09:46:55;102421.53;;;34.58;25.13
11395;BME280;5753;54.402;10.220;2023-06-24T09:49:24;102411.88;;;34.70;25.50
11395;BME280;5753;54.402;10.220;2023-06-24T09:51:58;102412.78;;;35.27;25.08
11395;BME280;5753;54.402;10.220;2023-06-24T09:54:26;102415.72;;;34.20;26.33
11395;BME280;5753;54.402;10.220;2023-06-24T09:57:01;102414.41;;;36.00;24.31
11395;BME280;5753;54.402;10.220;2023-06-24T09:59:28;102416.50;;;35.39;24.91
11395;BME280;5753;54.402;10.220;2023-06-24T10:01:56;102415.41;;;36.76;23.31
11395;BME280;5753;54.402;10.220;2023-06-24T10:04:22;102411.56;;;36.80;23.73
11395;BME280;5753;54.402;10.220;2023-06-24T10:06:49;102409.88;;;38.26;22.49
11395;BME280;5753;54.402;10.220;2023-06-24T10:09:17;102420.28;;;38.19;21.88
11395;BME280;5753;54.402;10.220;2023-06-24T10:11:45;102411.38;;;37.82;22.53
11395;BME280;5753;54.402;10.220;2023-06-24T10:14:12;102412.81;;;38.23;22.58
11395;BME280;5753;54.402;10.220;2023-06-24T10:16:41;102400.56;;;36.58;24.37
11395;BME280;5753;54.402;10.220;2023-06-24T10:19:07;102389.09;;;36.16;24.61
11395;BME280;5753;54.402;10.220;2023-06-24T10:21:47;102394.03;;;38.45;23.17
11395;BME280;5753;54.402;10.220;2023-06-24T10:24:32;102393.03;;;37.39;23.76
11395;BME280;5753;54.402;10.220;2023-06-24T10:27:16;102378.97;;;36.47;25.88
11395;BME280;5753;54.402;10.220;2023-06-24T10:29:46;102390.84;;;37.44;24.33
11395;BME280;5753;54.402;10.220;2023-06-24T10:32:13;102378.75;;;37.01;24.87
11395;BME280;5753;54.402;10.220;2023-06-24T10:34:41;102392.19;;;36.75;25.74
11395;BME280;5753;54.402;10.220;2023-06-24T10:37:17;102392.13;;;37.52;25.28
11395;BME280;5753;54.402;10.220;2023-06-24T10:39:56;102388.06;;;37.46;24.41
11395;BME280;5753;54.402;10.220;2023-06-24T10:42:41;102395.38;;;38.39;23.94
11395;BME280;5753;54.402;10.220;2023-06-24T10:47:48;102382.81;;;38.16;23.52
11395;BME280;5753;54.402;10.220;2023-06-24T10:50:17;102377.56;;;38.26;23.09
11395;BME280;5753;54.402;10.220;2023-06-24T10:52:48;102372.41;;;38.91;22.98
11395;BME280;5753;54.402;10.220;2023-06-24T10:55:18;102377.38;;;40.27;21.73
11395;BME280;5753;54.402;10.220;2023-06-24T10:57:45;102369.78;;;41.24;21.38
11395;BME280;5753;54.402;10.220;2023-06-24T11:00:12;102369.69;;;41.14;21.20
11395;BME280;5753;54.402;10.220;2023-06-24T11:02:39;102366.00;;;40.12;21.25
11395;BME280;5753;54.402;10.220;2023-06-24T11:05:06;102360.56;;;39.59;21.84
11395;BME280;5753;54.402;10.220;2023-06-24T11:07:33;102357.56;;;38.74;23.55
11395;BME280;5753;54.402;10.220;2023-06-24T11:10:07;102351.13;;;39.97;21.58
11395;BME280;5753;54.402;10.220;2023-06-24T11:12:35;102358.59;;;38.27;22.88
11395;BME280;5753;54.402;10.220;2023-06-24T11:15:04;102358.00;;;39.58;22.06
11395;BME280;5753;54.402;10.220;2023-06-24T11:17:31;102358.44;;;40.06;21.95
11395;BME280;5753;54.402;10.220;2023-06-24T11:19:58;102355.44;;;40.41;21.21
11395;BME280;5753;54.402;10.220;2023-06-24T11:22:25;102347.72;;;39.52;22.27
11395;BME280;5753;54.402;10.220;2023-06-24T11:24:52;102348.34;;;40.08;21.67
11395;BME280;5753;54.402;10.220;2023-06-24T11:27:28;102343.44;;;39.49;22.52
11395;BME280;5753;54.402;10.220;2023-06-24T11:29:57;102353.16;;;39.73;21.28
11395;BME280;5753;54.402;10.220;2023-06-24T11:32:41;102362.69;;;38.44;22.85
11395;BME280;5753;54.402;10.220;2023-06-24T11:35:12;102346.47;;;39.56;22.17
11395;BME280;5753;54.402;10.220;2023-06-24T11:37:41;102347.78;;;39.07;22.32
11395;BME280;5753;54.402;10.220;2023-06-24T11:40:10;102346.31;;;40.01;21.68
11395;BME280;5753;54.402;10.220;2023-06-24T11:42:38;102349.09;;;39.24;22.67
11395;BME280;5753;54.402;10.220;2023-06-24T11:45:12;102345.34;;;40.43;21.68
11395;BME280;5753;54.402;10.220;2023-06-24T11:47:39;102343.97;;;39.75;22.23
11395;BME280;5753;54.402;10.220;2023-06-24T11:50:07;102347.78;;;39.07;22.84
11395;BME280;5753;54.402;10.220;2023-06-24T11:52:40;102348.28;;;39.99;22.17
11395;BME280;5753;54.402;10.220;2023-06-24T11:55:20;102339.66;;;40.46;21.68
11395;BME280;5753;54.402;10.220;2023-06-24T11:58:03;102341.16;;;41.50;20.74
11395;BME280;5753;54.402;10.220;2023-06-24T12:00:41;102339.16;;;41.33;20.73
11395;BME280;5753;54.402;10.220;2023-06-24T12:03:12;102334.56;;;39.90;21.85
11395;BME280;5753;54.402;10.220;2023-06-24T12:05:39;102327.31;;;39.91;22.33
11395;BME280;5753;54.402;10.220;2023-06-24T12:08:12;102333.66;;;41.13;21.05
11395;BME280;5753;54.402;10.220;2023-06-24T12:10:39;102335.63;;;42.19;20.16
11395;BME280;5753;54.402;10.220;2023-06-24T12:13:06;102336.34;;;42.02;20.93
11395;BME280;5753;54.402;10.220;2023-06-24T12:15:34;102331.84;;;40.74;21.63
11395;BME280;5753;54.402;10.220;2023-06-24T12:18:01;102329.63;;;42.99;19.64
11395;BME280;5753;54.402;10.220;2023-06-24T12:20:28;102328.13;;;42.87;19.60
11395;BME280;5753;54.402;10.220;2023-06-24T12:22:55;102329.25;;;41.81;20.04
11395;BME280;5753;54.402;10.220;2023-06-24T12:25:21;102326.13;;;39.52;22.64
11395;BME280;5753;54.402;10.220;2023-06-24T12:27:47;102320.53;;;39.32;22.51
11395;BME280;5753;54.402;10.220;2023-06-24T12:30:14;102323.66;;;42.22;19.47
11395;BME280;5753;54.402;10.220;2023-06-24T12:32:40;102321.56;;;42.43;19.52
11395;BME280;5753;54.402;10.220;2023-06-24T12:35:06;102318.78;;;44.92;17.88
11395;BME280;5753;54.402;10.220;2023-06-24T12:37:35;102312.72;;;44.98;17.27
11395;BME280;5753;54.402;10.220;2023-06-24T12:40:03;102312.44;;;44.75;17.33
11395;BME280;5753;54.402;10.220;2023-06-24T12:42:29;102311.78;;;46.13;16.61
11395;BME280;5753;54.402;10.220;2023-06-24T12:44:55;102305.47;;;46.21;16.44
11395;BME280;5753;54.402;10.220;2023-06-24T12:47:22;102305.38;;;47.23;15.67
11395;BME280;5753;54.402;10.220;2023-06-24T12:49:49;102298.31;;;45.38;16.84
11395;BME280;5753;54.402;10.220;2023-06-24T12:52:15;102310.28;;;47.28;15.48
11395;BME280;5753;54.402;10.220;2023-06-24T12:54:41;102306.13;;;48.60;14.20
11395;BME280;5753;54.402;10.220;2023-06-24T12:57:08;102301.41;;;47.72;14.27
11395;BME280;5753;54.402;10.220;2023-06-24T12:59:34;102306.50;;;46.67;15.57
11395;BME280;5753;54.402;10.220;2023-06-24T13:02:00;102296.50;;;43.59;17.54
11395;BME280;5753;54.402;10.220;2023-06-24T13:04:26;102305.47;;;46.21;16.29
11395;BME280;5753;54.402;10.220;2023-06-24T13:06:53;102305.34;;;48.95;14.52
11395;BME280;5753;54.402;10.220;2023-06-24T13:09:19;102295.28;;;49.02;14.28